createdAt,value
2022-08-07T00:00:18.765Z,99.9
2022-08-07T00:02:37.930Z,99.9
2022-08-07T00:04:18.715Z,99.9
2022-08-07T00:06:20.487Z,99.9
2022-08-07T00:08:21.800Z,99.9
2022-08-07T00:10:26.208Z,99.9
2022-08-07T00:14:30.077Z,99.9
2022-08-07T00:16:31.174Z,99.9
2022-08-07T00:17:35.775Z,99.9
2022-08-07T00:20:02.566Z,99.9
2022-08-07T00:21:56.329Z,99.9
2022-08-07T00:23:39.538Z,99.9
2022-08-07T00:25:42.936Z,99.9
2022-08-07T00:27:52.385Z,99.9
2022-08-07T00:29:45.931Z,99.9
2022-08-07T00:31:51.276Z,99.9
2022-08-07T00:33:48.961Z,99.9
2022-08-07T00:35:50.458Z,99.9
2022-08-07T00:37:52.021Z,99.9
2022-08-07T00:39:56.941Z,99.9
2022-08-07T00:42:02.547Z,99.9
2022-08-07T00:44:02.804Z,99.9
2022-08-07T00:46:02.017Z,99.9
2022-08-07T00:48:08.089Z,99.9
2022-08-07T00:50:19.403Z,99.9
2022-08-07T00:52:05.986Z,99.9
2022-08-07T00:54:10.809Z,99.9
2022-08-07T00:56:13.923Z,99.9
2022-08-07T00:58:13.900Z,99.9
2022-08-07T01:00:15.412Z,99.9
2022-08-07T01:02:27.912Z,99.9
2022-08-07T01:04:24.696Z,99.9
2022-08-07T01:06:19.923Z,99.9
2022-08-07T01:08:24.764Z,99.9
2022-08-07T01:10:26.262Z,99.9
2022-08-07T01:12:30.479Z,99.9
2022-08-07T01:16:00.688Z,99.9
2022-08-07T01:17:33.265Z,99.9
2022-08-07T01:19:34.776Z,99.9
2022-08-07T01:21:39.607Z,99.9
2022-08-07T01:23:43.800Z,99.9
2022-08-07T01:25:55.337Z,99.9
2022-08-07T01:29:45.602Z,99.9
2022-08-07T01:31:48.413Z,99.9
2022-08-07T01:33:55.237Z,99.9
2022-08-07T01:36:05.970Z,99.9
2022-08-07T01:37:54.914Z,99.9
2022-08-07T01:39:56.452Z,99.9
2022-08-07T01:43:59.415Z,99.9
2022-08-07T01:46:00.938Z,99.9
2022-08-07T01:48:18.955Z,99.9
2022-08-07T01:50:07.249Z,99.9
2022-08-07T01:54:13.038Z,99.9
2022-08-07T01:56:11.840Z,99.9
2022-08-07T01:58:28.866Z,99.9
2022-08-07T02:00:14.856Z,99.9
2022-08-07T02:04:21.261Z,99.9
2022-08-07T02:06:31.750Z,99.9
2022-08-07T02:08:24.295Z,99.9
2022-08-07T02:10:48.670Z,99.9
2022-08-07T02:12:50.223Z,99.9
2022-08-07T02:14:50.495Z,99.9
2022-08-07T02:16:55.273Z,99.9
2022-08-07T02:18:56.775Z,99.9
2022-08-07T02:23:00.086Z,99.9
2022-08-07T02:25:01.292Z,99.9
2022-08-07T02:27:02.948Z,99.9
2022-08-07T02:29:04.267Z,99.9
2022-08-07T02:31:18.678Z,99.9
2022-08-07T02:33:10.733Z,99.9
2022-08-07T02:35:12.075Z,99.9
2022-08-07T02:37:13.598Z,99.9
2022-08-07T02:39:17.517Z,99.9
2022-08-07T02:41:21.753Z,99.9
2022-08-07T02:43:18.094Z,99.9
2022-08-07T02:46:00.773Z,99.9
2022-08-07T02:47:24.397Z,99.9
2022-08-07T02:49:29.087Z,99.9
2022-08-07T02:51:41.786Z,99.9
2022-08-07T02:53:28.907Z,99.9
2022-08-07T02:56:04.394Z,99.9
2022-08-07T02:57:35.028Z,99.9
2022-08-07T02:59:36.813Z,99.9
2022-08-07T03:03:42.214Z,99.9
2022-08-07T03:04:42.222Z,99.9
2022-08-07T03:06:44.754Z,99.9
2022-08-07T03:08:45.216Z,99.9
2022-08-07T03:10:47.211Z,99.9
2022-08-07T03:12:52.000Z,99.9
2022-08-07T03:14:53.081Z,99.9
2022-08-07T03:16:54.568Z,99.9
2022-08-07T03:18:56.094Z,99.9
2022-08-07T03:20:57.600Z,99.9
2022-08-07T03:22:59.088Z,99.9
2022-08-07T03:25:00.657Z,99.9
2022-08-07T03:27:05.476Z,99.9
2022-08-07T03:29:11.130Z,99.9
2022-08-07T03:33:10.133Z,99.9
2022-08-07T03:39:14.638Z,99.9
2022-08-07T03:41:19.416Z,99.9
2022-08-07T03:43:20.944Z,99.9
2022-08-07T03:47:24.087Z,99.9
2022-08-07T03:49:25.552Z,99.9
2022-08-07T03:51:30.903Z,99.9
2022-08-07T03:55:48.724Z,99.9
2022-08-07T03:58:35.082Z,99.9
2022-08-07T03:59:36.407Z,99.9
2022-08-07T04:02:40.274Z,99.9
2022-08-07T04:04:41.761Z,99.9
2022-08-07T04:06:43.257Z,99.9
2022-08-07T04:10:54.090Z,99.9
2022-08-07T04:12:51.197Z,99.9
2022-08-07T04:14:52.760Z,99.9
2022-08-07T04:16:58.241Z,99.9
2022-08-07T04:23:06.242Z,99.9
2022-08-07T04:25:03.581Z,99.9
2022-08-07T04:27:05.061Z,99.9
2022-08-07T04:29:10.836Z,99.9
2022-08-07T04:31:08.035Z,99.9
2022-08-07T04:33:09.558Z,99.9
2022-08-07T04:35:11.311Z,99.9
2022-08-07T04:37:20.457Z,99.9
2022-08-07T04:39:17.587Z,99.9
2022-08-07T04:41:19.242Z,99.9
2022-08-07T04:43:20.394Z,99.9
2022-08-07T04:46:00.471Z,99.9
2022-08-07T04:48:00.461Z,99.9
2022-08-07T04:49:25.694Z,99.9
2022-08-07T04:51:29.673Z,99.9
2022-08-07T04:54:01.330Z,99.9
2022-08-07T04:58:14.297Z,98.4
2022-08-07T04:58:24.504Z,99.9
2022-08-07T04:59:09.218Z,96.2
2022-08-07T05:00:38.352Z,96.3
2022-08-07T05:04:47.221Z,98
2022-08-07T05:06:52.882Z,98.4
2022-08-07T05:09:01.441Z,98.8
2022-08-07T05:10:49.189Z,99
2022-08-07T05:12:53.662Z,98
2022-08-07T05:15:03.448Z,93
2022-08-07T05:16:53.704Z,83.4
2022-08-07T05:19:00.086Z,81.7
2022-08-07T05:21:01.548Z,80.5
2022-08-07T05:23:03.070Z,79.2
2022-08-07T05:25:08.672Z,71.6
2022-08-07T05:27:06.070Z,71.1
2022-08-07T05:29:07.619Z,70.9
2022-08-07T05:31:09.120Z,70.6
2022-08-07T05:33:13.943Z,64.1
2022-08-07T05:35:15.395Z,62.4
2022-08-07T05:37:25.064Z,61.2
2022-08-07T05:40:06.942Z,59.9
2022-08-07T05:54:09.217Z,58.1
2022-08-07T05:56:02.462Z,57.6
2022-08-07T05:57:56.805Z,55.9
2022-08-07T06:00:01.626Z,53.8
2022-08-07T06:02:03.281Z,53.2
2022-08-07T06:04:04.615Z,52.7
2022-08-07T06:06:06.100Z,52.4
2022-08-07T06:08:29.750Z,52.5
2022-08-07T06:10:11.359Z,52.4
2022-08-07T06:12:10.610Z,52.6
2022-08-07T06:14:21.364Z,52.8
2022-08-07T06:16:16.928Z,52.5
2022-08-07T06:20:32.018Z,51.8
2022-08-07T06:22:24.041Z,51.5
2022-08-07T06:24:38.151Z,50.2
2022-08-07T06:26:27.590Z,49.9
2022-08-07T06:28:29.125Z,48.3
2022-08-07T06:30:35.418Z,47.3
2022-08-07T06:32:32.720Z,47.1
2022-08-07T06:34:33.590Z,47.1
2022-08-07T06:36:35.691Z,47.4
2022-08-07T06:38:36.507Z,47.3
2022-08-07T06:40:38.031Z,47.5
2022-08-07T06:44:44.285Z,47.2
2022-08-07T06:46:53.809Z,46.9
2022-08-07T06:47:58.601Z,47.4
2022-08-07T06:49:51.675Z,47.9
2022-08-07T06:51:50.766Z,47.8
2022-08-07T06:55:31.842Z,47.6
2022-08-07T06:56:01.889Z,47.6
2022-08-07T06:57:58.404Z,47.6
2022-08-07T07:00:11.806Z,47.7
2022-08-07T07:08:07.239Z,48.2
2022-08-07T07:16:14.007Z,49.5
2022-08-07T07:20:16.668Z,50.4
2022-08-07T07:22:35.703Z,50.8
2022-08-07T07:24:22.808Z,51
2022-08-07T07:26:31.670Z,50.9
2022-08-07T07:28:42.669Z,50.7
2022-08-07T07:30:38.098Z,50
2022-08-07T07:32:28.178Z,50
2022-08-07T07:34:30.933Z,49.9
2022-08-07T07:38:36.066Z,50
2022-08-07T07:42:38.126Z,50.4
2022-08-07T07:50:32.964Z,50.4
2022-08-07T07:59:54.205Z,49.6
2022-08-07T08:02:02.467Z,49.5
2022-08-07T08:04:09.593Z,49.6
2022-08-07T08:06:01.371Z,49.7
2022-08-07T08:08:02.853Z,49.4
2022-08-07T08:10:05.525Z,49.1
2022-08-07T08:12:06.070Z,48.4
2022-08-07T08:14:06.629Z,46.9
2022-08-07T08:18:17.466Z,46.6
2022-08-07T08:20:22.861Z,45.9
2022-08-07T08:22:15.127Z,45.6
2022-08-07T08:28:23.923Z,44.8
2022-08-07T08:30:20.292Z,44.6
2022-08-07T08:32:25.352Z,44.4
2022-08-07T08:34:27.252Z,43.8
2022-08-07T08:36:30.124Z,43.7
2022-08-07T08:38:30.033Z,43.2
2022-08-07T08:43:42.482Z,43
2022-08-07T08:45:58.461Z,41.7
2022-08-07T08:47:52.026Z,41.4
2022-08-07T08:49:46.273Z,40.9
2022-08-07T08:51:49.462Z,40.5
2022-08-07T08:53:42.987Z,40.5
2022-08-07T08:55:54.351Z,40.1
2022-08-07T08:57:45.536Z,40.3
2022-08-07T08:59:48.511Z,40.4
2022-08-07T09:01:51.368Z,42.1
2022-08-07T09:03:53.027Z,42
2022-08-07T09:05:53.771Z,42.4
2022-08-07T09:07:58.146Z,42.4
2022-08-07T09:09:56.700Z,42.3
2022-08-07T09:12:08.979Z,41.4
2022-08-07T09:13:58.650Z,40.2
2022-08-07T09:18:11.406Z,38.4
2022-08-07T09:20:34.611Z,38.3
2022-08-07T09:30:15.984Z,38
2022-08-07T09:32:20.923Z,37.8
2022-08-07T09:34:18.408Z,38
2022-08-07T09:38:36.279Z,39.1
2022-08-07T09:40:37.497Z,39.1
2022-08-07T09:47:50.259Z,37.7
2022-08-07T09:49:58.555Z,37.3
2022-08-07T09:50:46.940Z,36.6
2022-08-07T09:52:48.571Z,36.5
2022-08-07T09:54:49.160Z,36.6
2022-08-07T09:56:53.606Z,36.8
2022-08-07T09:58:54.814Z,36.9
2022-08-07T10:00:56.022Z,37.1
2022-08-07T10:02:57.213Z,37.2
2022-08-07T10:04:58.454Z,36.9
2022-08-07T10:06:59.640Z,36.9
2022-08-07T10:11:59.114Z,35.9
2022-08-07T10:13:10.948Z,35.6
2022-08-07T10:15:07.658Z,35.2
2022-08-07T10:25:21.012Z,36.4
2022-08-07T10:30:21.338Z,38.2
2022-08-07T10:32:51.231Z,39.1
2022-08-07T10:34:27.318Z,40.1
2022-08-07T10:36:29.928Z,40.1
2022-08-07T10:38:47.903Z,40.4
2022-08-07T10:40:30.616Z,40.6
2022-08-07T10:42:36.894Z,40.9
2022-08-07T10:44:38.589Z,40.8
2022-08-07T10:46:34.035Z,41
2022-08-07T10:48:35.450Z,40.2
2022-08-07T10:50:36.382Z,39.8
2022-08-07T10:52:42.763Z,38.7
2022-08-07T10:54:42.005Z,38.7
2022-08-07T10:56:43.156Z,38
2022-08-07T10:58:46.128Z,37.8
2022-08-07T11:00:50.562Z,38
2022-08-07T11:02:49.217Z,38.2
2022-08-07T11:04:47.868Z,37.9
2022-08-07T11:06:52.268Z,37.5
2022-08-07T11:08:55.032Z,37.3
2022-08-07T11:10:59.767Z,36.9
2022-08-07T11:13:01.666Z,36.4
2022-08-07T11:15:00.623Z,36.5
2022-08-07T11:17:02.080Z,36.8
2022-08-07T11:19:00.684Z,37.2
2022-08-07T11:21:05.070Z,37.8
2022-08-07T11:23:07.191Z,38.7
2022-08-07T11:25:07.578Z,39.2
2022-08-07T11:26:09.552Z,39.6
2022-08-07T11:28:10.702Z,40.4
2022-08-07T11:30:18.841Z,41
2022-08-07T11:32:13.052Z,41.2
2022-08-07T11:34:17.459Z,42
2022-08-07T11:36:25.174Z,42.3
2022-08-07T11:38:21.452Z,42.2
2022-08-07T11:40:21.089Z,42.2
2022-08-07T11:42:22.292Z,41.7
2022-08-07T11:44:23.489Z,41.2
2022-08-07T11:46:24.692Z,39.9
2022-08-07T11:48:30.297Z,38.6
2022-08-07T11:50:32.789Z,38.1
2022-08-07T11:52:35.747Z,36.6
2022-08-07T11:54:32.822Z,36.3
2022-08-07T11:56:34.081Z,35.4
2022-08-07T11:58:35.217Z,35.1
2022-08-07T12:00:36.432Z,35
2022-08-07T12:02:40.885Z,35.2
2022-08-07T12:08:44.433Z,35.9
2022-08-07T12:10:45.609Z,36.7
2022-08-07T12:12:46.829Z,37.3
2022-08-07T12:14:53.931Z,37.7
2022-08-07T12:16:52.448Z,38.4
2022-08-07T12:18:53.632Z,38.9
2022-08-07T12:20:54.829Z,38.8
2022-08-07T12:22:39.125Z,38.8
2022-08-07T12:28:09.718Z,37
2022-08-07T12:30:05.126Z,35.7
2022-08-07T12:32:12.103Z,35.5
2022-08-07T12:34:11.047Z,34.6
2022-08-07T12:36:10.998Z,34.4
2022-08-07T12:38:16.953Z,34.4
2022-08-07T12:40:36.381Z,34.4
2022-08-07T12:42:13.265Z,34.5
2022-08-07T12:44:17.346Z,34.8
2022-08-07T12:46:26.245Z,34.8
2022-08-07T12:48:27.851Z,34.8
2022-08-07T12:50:38.460Z,34.3
2022-08-07T12:52:21.159Z,34.2
2022-08-07T12:54:37.045Z,34.2
2022-08-07T12:56:23.393Z,34.3
2022-08-07T12:58:28.167Z,34.4
2022-08-07T13:00:32.759Z,34.8
2022-08-07T13:02:33.257Z,35.1
2022-08-07T13:04:34.268Z,36.2
2022-08-07T13:06:32.322Z,36.4
2022-08-07T13:08:33.490Z,36.9
2022-08-07T13:10:39.934Z,37.1
2022-08-07T13:12:39.018Z,37.5
2022-08-07T13:14:50.847Z,37.5
2022-08-07T13:16:41.332Z,37
2022-08-07T13:19:01.492Z,35.6
2022-08-07T13:21:03.691Z,35.2
2022-08-07T13:23:09.719Z,35.1
2022-08-07T13:25:08.158Z,35.8
2022-08-07T13:27:09.323Z,36.6
2022-08-07T13:29:10.483Z,37.2
2022-08-07T13:31:13.417Z,37.6
2022-08-07T13:34:14.876Z,38.1
2022-08-07T13:35:15.792Z,38.3
2022-08-07T13:37:20.110Z,38.7
2022-08-07T13:39:28.503Z,39.1
2022-08-07T13:47:25.345Z,35.8
2022-08-07T13:50:33.287Z,35.9
2022-08-07T13:57:38.173Z,36.5
2022-08-07T14:01:59.148Z,34.9
2022-08-07T14:04:05.708Z,34.7
2022-08-07T14:05:38.540Z,33.6
2022-08-07T14:08:00.489Z,30.4
2022-08-07T14:10:12.340Z,30.4
2022-08-07T14:11:53.835Z,30.2
2022-08-07T14:12:49.188Z,29.8
2022-08-07T14:16:49.974Z,29.6
2022-08-07T14:18:56.723Z,29.6
2022-08-07T14:20:55.122Z,29.2
2022-08-07T14:22:56.248Z,29.3
2022-08-07T14:24:57.332Z,29.3
2022-08-07T14:26:58.428Z,29.4
2022-08-07T14:29:04.473Z,29.7
2022-08-07T14:31:00.610Z,29.9
2022-08-07T14:33:01.711Z,31.6
2022-08-07T14:35:06.065Z,35.2
2022-08-07T14:37:07.148Z,36.6
2022-08-07T14:43:57.357Z,38.5
2022-08-07T14:49:57.450Z,41
2022-08-07T14:51:18.251Z,40.9
2022-08-07T14:57:21.732Z,41.4
2022-08-07T15:01:24.015Z,41.5
2022-08-07T15:03:52.720Z,41
2022-08-07T15:05:30.375Z,40.5
2022-08-07T15:07:51.173Z,40.4
2022-08-07T15:10:34.218Z,39.8
2022-08-07T15:12:35.571Z,39.8
2022-08-07T15:14:55.796Z,38.8
2022-08-07T15:16:41.040Z,37.8
2022-08-07T15:22:53.630Z,36.9
2022-08-07T15:26:46.966Z,36.5
2022-08-07T15:28:54.068Z,36.3
2022-08-07T15:33:03.852Z,36.2
2022-08-07T15:34:56.899Z,36.2
2022-08-07T15:37:04.068Z,36.2
2022-08-07T15:38:59.502Z,36.3
2022-08-07T15:41:00.499Z,36.3
2022-08-07T15:45:04.047Z,36
2022-08-07T15:47:08.992Z,36.1
2022-08-07T15:49:14.530Z,36.2
2022-08-07T15:51:09.274Z,36.2
2022-08-07T15:53:08.838Z,36
2022-08-07T15:55:12.127Z,35.7
2022-08-07T15:57:39.672Z,35.5
2022-08-07T15:59:16.412Z,35.1
2022-08-07T16:01:20.347Z,35.1
2022-08-07T16:03:21.611Z,35.3
2022-08-07T16:06:21.587Z,35.5
2022-08-07T16:10:24.481Z,35.4
2022-08-07T16:12:39.044Z,35.3
2022-08-07T16:14:29.758Z,35.3
2022-08-07T16:16:48.626Z,35.5
2022-08-07T16:18:50.093Z,35.6
2022-08-07T16:20:34.770Z,35.7
2022-08-07T16:22:36.315Z,35.7
2022-08-07T16:24:35.927Z,35.8
2022-08-07T16:26:58.967Z,36.1
2022-08-07T16:30:08.827Z,36.5
2022-08-07T16:30:42.830Z,36.9
2022-08-07T16:32:46.578Z,37
2022-08-07T16:37:02.331Z,37.6
2022-08-07T16:39:01.250Z,37.7
2022-08-07T16:42:53.457Z,37.7
2022-08-07T16:45:15.557Z,37.7
2022-08-07T16:47:11.867Z,37.6
2022-08-07T16:50:14.148Z,37.7
2022-08-07T16:55:08.484Z,37.7
2022-08-07T16:59:10.961Z,37.5
2022-08-07T17:01:34.472Z,37.2
2022-08-07T17:03:59.700Z,37.1
2022-08-07T17:06:28.828Z,36.8
2022-08-07T17:07:51.713Z,36.5
2022-08-07T17:10:07.007Z,36.5
2022-08-07T17:12:02.016Z,36.7
2022-08-07T17:15:43.674Z,37
2022-08-07T17:20:02.935Z,37.6
2022-08-07T17:23:50.903Z,38.1
2022-08-07T17:25:52.679Z,38.2
2022-08-07T17:27:53.426Z,38.2
2022-08-07T17:36:01.664Z,37.8
2022-08-07T17:38:09.325Z,37.8
2022-08-07T17:40:08.719Z,37.8
2022-08-07T17:42:06.635Z,37.8
2022-08-07T17:44:13.716Z,37.9
2022-08-07T17:46:07.954Z,38
2022-08-07T17:48:11.090Z,38.2
2022-08-07T17:50:16.774Z,38.2
2022-08-07T17:52:14.961Z,38.3
2022-08-07T17:54:18.791Z,38.2
2022-08-07T17:59:20.975Z,38.3
2022-08-07T18:05:27.983Z,39
2022-08-07T18:12:17.987Z,39.8
2022-08-07T18:15:34.333Z,40.4
2022-08-07T18:18:44.994Z,40.7
2022-08-07T18:21:06.022Z,40.8
2022-08-07T18:21:55.163Z,40.8
2022-08-07T18:23:50.826Z,40.9
2022-08-07T18:25:43.949Z,41.1
2022-08-07T18:27:45.231Z,41.5
2022-08-07T18:30:08.444Z,41.8
2022-08-07T18:31:51.187Z,42.4
2022-08-07T18:33:55.446Z,42.7
2022-08-07T18:35:55.646Z,43
2022-08-07T18:38:59.262Z,44.2
2022-08-07T18:40:08.670Z,45.5
2022-08-07T18:43:58.813Z,47.2
2022-08-07T18:46:25.140Z,48.1
2022-08-07T18:48:04.636Z,48.7
2022-08-07T18:50:37.896Z,49.1
2022-08-07T18:51:08.238Z,49.6
2022-08-07T18:53:12.466Z,49.9
2022-08-07T18:55:41.076Z,50.1
2022-08-07T18:57:30.234Z,50.3
2022-08-07T18:59:47.705Z,51
2022-08-07T19:02:17.019Z,51.3
2022-08-07T19:03:19.980Z,51.6
2022-08-07T19:05:21.361Z,52
2022-08-07T19:07:34.909Z,52.3
2022-08-07T19:09:57.350Z,52.5
2022-08-07T19:11:36.475Z,52.7
2022-08-07T19:13:30.240Z,53
2022-08-07T19:16:05.586Z,53.2
2022-08-07T19:18:05.983Z,53.4
2022-08-07T19:19:34.272Z,53.7
2022-08-07T19:21:47.675Z,53.9
2022-08-07T19:23:58.039Z,54.2
2022-08-07T19:26:23.164Z,54.3
2022-08-07T19:28:57.423Z,54.6
2022-08-07T19:31:01.321Z,54.7
2022-08-07T19:32:11.433Z,54.9
2022-08-07T19:33:58.001Z,55
2022-08-07T19:39:57.655Z,56
2022-08-07T19:44:01.121Z,57.1
2022-08-07T19:46:07.611Z,57.4
2022-08-07T19:47:02.357Z,57.6
2022-08-07T19:49:03.867Z,57.8
2022-08-07T19:54:29.970Z,58.2
2022-08-07T19:55:11.588Z,58.8
2022-08-07T19:58:00.787Z,59.1
2022-08-07T19:59:14.528Z,59.4
2022-08-07T20:01:16.002Z,59.7
2022-08-07T20:03:34.785Z,60
2022-08-07T20:05:18.982Z,60.4
2022-08-07T20:07:23.863Z,60.7
2022-08-07T20:10:37.332Z,61.4
2022-08-07T20:12:22.941Z,61.8
2022-08-07T20:13:32.064Z,62.1
2022-08-07T20:15:33.067Z,62.5
2022-08-07T20:17:31.119Z,62.8
2022-08-07T20:19:47.923Z,63.7
2022-08-07T20:21:41.874Z,64.1
2022-08-07T20:23:43.165Z,64.9
2022-08-07T20:25:40.715Z,65.4
2022-08-07T20:27:45.986Z,65.7
2022-08-07T20:29:48.120Z,65.8
2022-08-07T20:31:44.889Z,65.8
2022-08-07T20:35:52.038Z,66
2022-08-07T20:37:58.900Z,66.3
2022-08-07T20:40:03.961Z,66.6
2022-08-07T20:41:55.597Z,66.9
2022-08-07T20:44:18.560Z,67.4
2022-08-07T20:48:28.270Z,67.8
2022-08-07T20:56:32.412Z,69.5
2022-08-07T20:58:32.316Z,69.8
2022-08-07T21:00:33.808Z,70.1
2022-08-07T21:02:35.379Z,70.5
2022-08-07T21:04:40.106Z,71.7
2022-08-07T21:06:42.396Z,72.3
2022-08-07T21:08:43.109Z,72.8
2022-08-07T21:10:44.590Z,73.2
2022-08-07T21:12:47.196Z,73.8
2022-08-07T21:18:53.940Z,75.4
2022-08-07T21:20:56.188Z,76
2022-08-07T21:22:56.941Z,76.4
2022-08-07T21:24:58.434Z,77.1
2022-08-07T21:26:59.952Z,77.9
2022-08-07T21:29:01.501Z,78.3
2022-08-07T21:31:02.961Z,79.4
2022-08-07T21:38:13.319Z,83.3
2022-08-07T21:40:14.824Z,83.9
2022-08-07T21:42:41.777Z,84.3
2022-08-07T21:44:29.875Z,84.5
2022-08-07T21:46:25.248Z,85.3
2022-08-07T21:48:28.544Z,85.7
2022-08-07T21:50:25.629Z,86
2022-08-07T21:52:33.222Z,86.9
2022-08-07T21:54:28.640Z,88.2
2022-08-07T21:58:32.802Z,89.5
2022-08-07T22:00:36.499Z,90.5
2022-08-07T22:02:38.045Z,90.8
2022-08-07T22:06:45.222Z,91.8
2022-08-07T22:08:42.633Z,92.3
2022-08-07T22:10:44.013Z,92.9
2022-08-07T22:12:45.529Z,93.4
2022-08-07T22:14:59.791Z,94
2022-08-07T22:16:51.889Z,94.3
2022-08-07T22:18:53.447Z,94.4
2022-08-07T22:20:54.907Z,94.6
2022-08-07T22:22:57.194Z,94.9
2022-08-07T22:29:04.256Z,95.4
2022-08-07T22:33:07.326Z,95.4
2022-08-07T22:36:11.976Z,95.9
2022-08-07T22:40:14.477Z,96.7
2022-08-07T22:42:20.085Z,97.3
2022-08-07T22:44:20.736Z,97.4
2022-08-07T22:46:47.106Z,97.4
2022-08-07T22:48:54.581Z,97.3
2022-08-07T22:50:29.112Z,97.3
2022-08-07T22:52:37.782Z,97.2
2022-08-07T22:54:29.818Z,97.2
2022-08-07T22:56:34.625Z,97.6
2022-08-07T22:58:37.762Z,97.9
2022-08-07T23:00:37.661Z,98.1
2022-08-07T23:06:42.266Z,98.9
2022-08-07T23:08:47.901Z,99.1
2022-08-07T23:14:51.615Z,99.9
2022-08-07T23:16:55.495Z,99.8
2022-08-07T23:18:54.677Z,99.8
2022-08-07T23:20:56.191Z,99.8
2022-08-07T23:22:57.748Z,99.8
2022-08-07T23:25:02.542Z,99.8
2022-08-07T23:27:04.055Z,99.9
2022-08-07T23:29:17.118Z,99.9
2022-08-07T23:30:39.456Z,99.9
2022-08-07T23:34:20.187Z,99.9
2022-08-07T23:34:35.094Z,99.9
2022-08-07T23:36:17.253Z,99.9
2022-08-07T23:38:19.102Z,99.9
2022-08-07T23:40:18.952Z,99.9
2022-08-07T23:42:21.725Z,99.9
2022-08-07T23:44:24.784Z,99.9
2022-08-07T23:46:23.973Z,99.9
2022-08-07T23:48:25.174Z,99.9
2022-08-07T23:50:26.612Z,99.9
2022-08-07T23:53:00.636Z,99.9
2022-08-07T23:54:36.430Z,99.9
2022-08-07T23:56:35.135Z,99.9
2022-08-07T23:58:36.336Z,99.9
